Zhumadian, China
Current Conditions -  °F | °C
As of 6:00 AM on Monday 24 Nov 2014 (Local Time) from ZHCC Reporting Station
Haze Haze  
Wind Chill: 41°   Ceiling: Unl
Heat Index: 46°   Visibility: 1.2mi
Dew Point: 39°   Wind: 11mph
Humidity: 76%   Direction: 360°N
Pressure: 30.24"   Gusts: NA
Location:  32.97°N, 114.05°E
Report Text: ZHCC 232200Z 36005MPS 2000 BR NSC 08/04 Q1024 NOSIG
Loading
Personal Weather Stations






























Interactive Weather Map New forecast layout! Learn more

10-Day Weather Forecast

Advertisements
Track Severe Weather on mobile